createdAt,value
2023-03-02T00:02:50.151Z,41.55
2023-03-02T00:07:08.152Z,44.47
2023-03-02T00:11:21.695Z,48.65
2023-03-02T00:15:34.097Z,44.13
2023-03-02T00:19:46.552Z,39.60
2023-03-02T00:23:58.912Z,44.20
2023-03-02T00:28:11.224Z,39.97
2023-03-02T00:32:24.095Z,32.42
2023-03-02T00:36:36.681Z,45.88
2023-03-02T00:40:49.912Z,48.92
2023-03-02T00:45:06.145Z,37.88
2023-03-02T00:49:18.466Z,33.20
2023-03-02T00:53:30.967Z,35.75
2023-03-02T00:57:43.335Z,40.08
2023-03-02T01:02:02.275Z,36.08
2023-03-02T01:06:19.644Z,49.38
2023-03-02T01:10:33.897Z,37.05
2023-03-02T01:14:48.160Z,34.75
2023-03-02T01:19:00.554Z,41.25
2023-03-02T01:23:12.972Z,37.25
2023-03-02T01:27:25.392Z,33.55
2023-03-02T01:31:39.623Z,31.95
2023-03-02T01:35:53.308Z,36.15
2023-03-02T01:40:07.111Z,35.90
2023-03-02T01:44:40.075Z,33.40
2023-03-02T01:48:58.553Z,39.42
2023-03-02T01:53:25.547Z,39.23
2023-03-02T01:57:44.037Z,40.13
2023-03-02T02:01:58.854Z,39.08
2023-03-02T02:06:24.879Z,34.05
2023-03-02T02:10:37.791Z,36.00
2023-03-02T02:14:51.345Z,37.47
2023-03-02T02:19:12.334Z,35.90
2023-03-02T02:23:27.654Z,38.40
2023-03-02T02:27:40.219Z,38.67
2023-03-02T02:32:07.087Z,42.90
2023-03-02T02:36:25.219Z,42.80
2023-03-02T02:40:47.420Z,34.63
2023-03-02T02:45:05.699Z,36.10
2023-03-02T02:49:24.224Z,37.42
2023-03-02T02:54:00.160Z,43.83
2023-03-02T02:58:25.571Z,38.47
2023-03-02T03:02:45.080Z,34.55
2023-03-02T03:07:04.055Z,39.80
2023-03-02T03:11:23.823Z,47.65
2023-03-02T03:15:37.473Z,34.08
2023-03-02T03:19:50.260Z,43.20
2023-03-02T03:24:04.214Z,45.35
2023-03-02T03:28:18.350Z,41.83
2023-03-02T03:32:35.653Z,38.33
2023-03-02T03:36:49.430Z,37.05
2023-03-02T03:41:02.129Z,33.70
2023-03-02T03:45:15.114Z,35.03
2023-03-02T03:49:29.610Z,40.95
2023-03-02T03:53:42.150Z,37.17
2023-03-02T03:57:55.180Z,37.22
2023-03-02T04:02:08.411Z,43.35
2023-03-02T04:06:27.005Z,42.00
2023-03-02T04:10:40.295Z,40.22
2023-03-02T04:14:52.790Z,37.60
2023-03-02T04:19:13.052Z,37.97
2023-03-02T04:23:27.193Z,28.23
2023-03-02T04:27:40.341Z,47.15
2023-03-02T04:31:52.899Z,47.03
2023-03-02T04:36:07.255Z,43.88
2023-03-02T04:40:21.225Z,38.20
2023-03-02T04:44:33.748Z,36.15
2023-03-02T04:48:46.092Z,44.80
2023-03-02T04:52:58.492Z,39.05
2023-03-02T04:57:10.866Z,50.45
2023-03-02T05:01:26.830Z,36.63
2023-03-02T05:05:39.559Z,55.78
2023-03-02T05:09:51.995Z,42.15
2023-03-02T05:14:08.022Z,35.90
2023-03-02T05:18:20.619Z,47.83
2023-03-02T05:22:33.026Z,42.75
2023-03-02T05:26:45.333Z,40.88
2023-03-02T05:30:57.745Z,44.38
2023-03-02T05:35:10.523Z,32.13
2023-03-02T05:39:25.397Z,48.53
2023-03-02T05:43:37.865Z,41.83
2023-03-02T05:47:50.594Z,36.00
2023-03-02T05:52:04.141Z,43.35
2023-03-02T05:56:18.162Z,42.78
2023-03-02T06:00:30.966Z,42.53
2023-03-02T06:04:44.722Z,38.58
2023-03-02T06:08:58.326Z,48.33
2023-03-02T06:13:12.160Z,49.08
2023-03-02T06:17:24.463Z,49.78
2023-03-02T06:21:39.882Z,47.50
2023-03-02T06:25:52.284Z,44.58
2023-03-02T06:30:05.958Z,38.88
2023-03-02T06:34:18.287Z,48.72
2023-03-02T06:38:30.666Z,39.17
2023-03-02T06:42:43.585Z,38.90
2023-03-02T06:46:56.139Z,41.30
2023-03-02T06:51:09.106Z,32.17
2023-03-02T06:55:21.625Z,39.60
2023-03-02T06:59:34.988Z,46.88
2023-03-02T07:03:47.978Z,40.35
2023-03-02T07:08:00.767Z,37.30
2023-03-02T07:12:13.215Z,52.72
2023-03-02T07:16:25.680Z,71.07
2023-03-02T07:20:38.554Z,60.67
2023-03-02T07:24:50.965Z,66.32
2023-03-02T07:29:03.562Z,67.78
2023-03-02T07:33:15.852Z,51.72
2023-03-02T07:37:29.108Z,40.80
2023-03-02T07:41:41.402Z,45.38
2023-03-02T07:45:53.882Z,47.78
2023-03-02T07:50:06.859Z,54.75
2023-03-02T07:54:19.300Z,58.28
2023-03-02T07:58:32.097Z,77.68
2023-03-02T08:02:44.773Z,65.72
2023-03-02T08:06:57.156Z,71.47
2023-03-02T08:11:16.086Z,69.97
2023-03-02T08:15:28.487Z,62.80
2023-03-02T08:19:42.205Z,52.50
2023-03-02T08:23:56.022Z,62.30
2023-03-02T08:28:09.253Z,59.00
2023-03-02T08:32:21.786Z,58.88
2023-03-02T08:36:34.313Z,53.42
2023-03-02T08:40:46.892Z,65.65
2023-03-02T08:44:59.288Z,57.72
2023-03-02T08:49:11.640Z,63.92
2023-03-02T08:53:24.681Z,74.75
2023-03-02T08:57:37.243Z,66.35
2023-03-02T09:01:49.781Z,57.80
2023-03-02T09:06:02.438Z,70.10
2023-03-02T09:10:14.863Z,54.22
2023-03-02T09:14:27.718Z,52.78
2023-03-02T09:18:40.498Z,64.43
2023-03-02T09:22:52.875Z,56.88
2023-03-02T09:27:05.332Z,67.10
2023-03-02T09:31:17.699Z,65.70
2023-03-02T09:35:30.007Z,58.20
2023-03-02T09:39:42.392Z,65.70
2023-03-02T09:44:25.046Z,58.83
2023-03-02T09:48:55.460Z,57.50
2023-03-02T09:53:28.840Z,63.95
2023-03-02T09:57:42.549Z,55.50
2023-03-02T10:02:03.538Z,58.47
2023-03-02T10:06:15.897Z,64.18
2023-03-02T10:10:37.573Z,52.42
2023-03-02T10:15:04.160Z,58.53
2023-03-02T10:19:45.066Z,43.63
2023-03-02T10:24:12.886Z,55.05
2023-03-02T10:28:33.074Z,50.58
2023-03-02T10:32:53.235Z,63.35
2023-03-02T10:37:14.679Z,49.00
2023-03-02T10:41:33.470Z,49.65
2023-03-02T10:45:47.125Z,49.27
2023-03-02T10:49:59.619Z,58.63
2023-03-02T10:54:15.230Z,43.85
2023-03-02T10:58:32.648Z,50.78
2023-03-02T11:03:00.391Z,56.38
2023-03-02T11:07:21.344Z,59.08
2023-03-02T11:11:34.933Z,57.10
2023-03-02T11:15:50.013Z,53.20
2023-03-02T11:20:04.077Z,48.60
2023-03-02T11:24:28.920Z,57.22
2023-03-02T11:29:02.290Z,54.47
2023-03-02T11:33:21.341Z,43.17
2023-03-02T11:38:11.800Z,51.45
2023-03-02T11:42:35.161Z,47.00
2023-03-02T11:46:59.728Z,56.65
2023-03-02T11:51:15.238Z,44.15
2023-03-02T11:55:31.954Z,56.58
2023-03-02T11:59:44.392Z,42.88
2023-03-02T12:04:32.878Z,44.63
2023-03-02T12:08:47.184Z,48.40
2023-03-02T12:13:17.487Z,41.90
2023-03-02T12:17:30.910Z,49.20
2023-03-02T12:21:57.698Z,55.92
2023-03-02T12:26:22.301Z,62.63
2023-03-02T12:30:34.848Z,45.53
2023-03-02T12:35:09.027Z,50.85
2023-03-02T12:39:40.911Z,54.08
2023-03-02T12:44:10.172Z,55.78
2023-03-02T12:48:51.229Z,44.13
2023-03-02T12:53:06.601Z,54.03
2023-03-02T12:57:20.722Z,50.80
2023-03-02T13:01:35.196Z,56.55
2023-03-02T13:05:48.479Z,46.25
2023-03-02T13:10:03.664Z,48.30
2023-03-02T13:14:26.953Z,51.78
2023-03-02T13:18:39.875Z,55.42
2023-03-02T13:22:52.765Z,46.30
2023-03-02T13:27:08.190Z,46.45
2023-03-02T13:31:25.150Z,43.40
2023-03-02T13:35:38.758Z,41.25
2023-03-02T13:40:00.099Z,44.28
2023-03-02T13:44:20.737Z,45.63
2023-03-02T13:48:33.530Z,38.22
2023-03-02T13:52:46.217Z,57.70
2023-03-02T13:57:03.790Z,49.00
2023-03-02T14:01:16.124Z,45.50
2023-03-02T14:05:38.182Z,34.47
2023-03-02T14:09:50.500Z,44.78
2023-03-02T14:14:05.262Z,45.03
2023-03-02T14:18:42.936Z,41.00
2023-03-02T14:22:55.342Z,37.95
2023-03-02T14:27:09.872Z,36.13
2023-03-02T14:31:24.799Z,50.53
2023-03-02T14:35:37.227Z,41.38
2023-03-02T14:39:57.079Z,45.45
2023-03-02T14:44:11.909Z,44.30
2023-03-02T14:48:24.409Z,42.35
2023-03-02T14:52:41.135Z,41.55
2023-03-02T14:56:53.714Z,33.40
2023-03-02T15:01:06.290Z,40.42
2023-03-02T15:05:19.394Z,34.95
2023-03-02T15:09:31.714Z,29.45
2023-03-02T15:13:45.750Z,25.98
2023-03-02T15:18:01.402Z,30.48
2023-03-02T15:22:13.925Z,33.95
2023-03-02T15:26:28.570Z,28.50
2023-03-02T15:30:41.992Z,27.52
2023-03-02T15:34:54.448Z,29.77
2023-03-02T15:39:09.928Z,39.28
2023-03-02T15:43:22.277Z,35.28
2023-03-02T15:47:34.762Z,30.15
2023-03-02T15:51:47.038Z,27.85
2023-03-02T15:55:59.398Z,35.47
2023-03-02T16:00:13.712Z,30.13
2023-03-02T16:04:27.885Z,38.83
2023-03-02T16:08:40.267Z,33.15
2023-03-02T16:12:52.672Z,30.60
2023-03-02T16:17:05.144Z,28.10
2023-03-02T16:21:17.771Z,27.42
2023-03-02T16:25:32.372Z,39.72
2023-03-02T16:29:44.832Z,34.83
2023-03-02T16:33:59.255Z,26.85
2023-03-02T16:38:13.239Z,21.98
2023-03-02T16:42:29.892Z,28.65
2023-03-02T16:46:43.862Z,25.65
2023-03-02T16:50:57.433Z,28.35
2023-03-02T16:55:15.870Z,34.80
2023-03-02T16:59:28.270Z,30.60
2023-03-02T17:03:40.768Z,32.95
2023-03-02T17:07:54.154Z,36.53
2023-03-02T17:12:11.919Z,37.25
2023-03-02T17:16:25.096Z,40.35
2023-03-02T17:20:38.030Z,42.28
2023-03-02T17:24:50.450Z,34.45
2023-03-02T17:29:02.803Z,40.22
2023-03-02T17:33:15.434Z,37.65
2023-03-02T17:37:28.658Z,38.20
2023-03-02T17:41:40.999Z,49.42
2023-03-02T17:45:53.370Z,38.50
2023-03-02T17:50:06.291Z,38.65
2023-03-02T17:54:18.755Z,34.38
2023-03-02T17:58:44.326Z,33.85
2023-03-02T18:02:57.679Z,29.05
2023-03-02T18:07:10.045Z,31.33
2023-03-02T18:11:24.102Z,30.30
2023-03-02T18:15:36.487Z,34.80
2023-03-02T18:19:48.957Z,34.50
2023-03-02T18:24:01.264Z,29.17
2023-03-02T18:28:15.699Z,32.97
2023-03-02T18:32:28.413Z,28.60
2023-03-02T18:36:40.992Z,32.58
2023-03-02T18:40:53.334Z,36.00
2023-03-02T18:45:06.933Z,31.08
2023-03-02T18:49:20.830Z,29.35
2023-03-02T18:53:33.252Z,35.75
2023-03-02T18:57:45.931Z,29.42
2023-03-02T19:01:59.107Z,28.30
2023-03-02T19:06:11.816Z,34.55
2023-03-02T19:10:24.233Z,28.50
2023-03-02T19:14:36.694Z,36.45
2023-03-02T19:18:50.392Z,25.20
2023-03-02T19:23:02.707Z,24.40
2023-03-02T19:27:16.477Z,21.02
2023-03-02T19:31:30.711Z,15.40
2023-03-02T19:35:43.574Z,26.85
2023-03-02T19:39:56.004Z,32.13
2023-03-02T19:44:08.688Z,30.58
2023-03-02T19:48:21.173Z,31.50
2023-03-02T19:52:33.635Z,27.45
2023-03-02T19:56:53.327Z,22.00
2023-03-02T20:01:05.821Z,30.80
2023-03-02T20:05:18.591Z,30.95
2023-03-02T20:09:31.116Z,30.33
2023-03-02T20:13:43.564Z,29.02
2023-03-02T20:17:56.539Z,25.13
2023-03-02T20:22:09.902Z,27.75
2023-03-02T20:26:24.835Z,36.08
2023-03-02T20:30:40.450Z,26.65
2023-03-02T20:34:53.000Z,27.33
2023-03-02T20:39:12.552Z,30.08
2023-03-02T20:43:25.131Z,29.98
2023-03-02T20:47:37.768Z,28.10
2023-03-02T20:51:54.922Z,28.60
2023-03-02T20:56:07.562Z,28.23
2023-03-02T21:00:22.660Z,30.40
2023-03-02T21:04:36.521Z,31.33
2023-03-02T21:08:49.933Z,30.38
2023-03-02T21:13:03.034Z,35.65
2023-03-02T21:17:15.488Z,33.80
2023-03-02T21:21:40.668Z,39.17
2023-03-02T21:25:54.406Z,28.73
2023-03-02T21:30:12.596Z,31.85
2023-03-02T21:34:25.283Z,29.02
2023-03-02T21:38:37.691Z,25.23
2023-03-02T21:42:50.032Z,34.03
2023-03-02T21:47:02.382Z,22.67
2023-03-02T21:51:15.519Z,32.13
2023-03-02T21:55:29.866Z,33.53
2023-03-02T21:59:42.289Z,19.92
2023-03-02T22:03:54.710Z,34.83
2023-03-02T22:08:07.807Z,34.40
2023-03-02T22:12:22.830Z,29.88
2023-03-02T22:16:38.591Z,37.70
2023-03-02T22:20:52.038Z,38.80
2023-03-02T22:25:17.103Z,25.27
2023-03-02T22:29:34.831Z,35.58
2023-03-02T22:33:47.599Z,30.67
2023-03-02T22:38:12.149Z,25.90
2023-03-02T22:42:27.416Z,28.27
2023-03-02T22:46:41.064Z,28.83
2023-03-02T22:50:53.525Z,34.05
2023-03-02T22:55:32.095Z,23.33
2023-03-02T22:59:44.512Z,28.20
2023-03-02T23:04:09.081Z,25.80
2023-03-02T23:08:30.272Z,26.55
2023-03-02T23:12:42.884Z,24.20
2023-03-02T23:17:00.497Z,26.23
2023-03-02T23:21:23.824Z,24.77
2023-03-02T23:25:37.260Z,18.17
2023-03-02T23:29:49.560Z,22.88
2023-03-02T23:34:02.221Z,21.58
2023-03-02T23:38:14.791Z,20.88
2023-03-02T23:42:27.227Z,18.23
2023-03-02T23:46:39.594Z,18.63
2023-03-02T23:50:51.983Z,23.13
2023-03-02T23:55:05.786Z,19.85
2023-03-02T23:59:18.122Z,18.77
